createdAt,value
2022-11-28T00:00:29.062Z,36.42
2022-11-28T00:01:29.056Z,36.25
2022-11-28T00:02:29.219Z,44.31
2022-11-28T00:03:29.255Z,35.93
2022-11-28T00:04:29.057Z,37.71
2022-11-28T00:05:29.020Z,46.57
2022-11-28T00:06:29.011Z,40.12
2022-11-28T00:07:29.027Z,37.87
2022-11-28T00:08:28.996Z,37.87
2022-11-28T00:09:29.019Z,38.83
2022-11-28T00:10:28.983Z,46.08
2022-11-28T00:11:28.979Z,47.05
2022-11-28T00:12:28.969Z,38.51
2022-11-28T00:13:28.956Z,42.06
2022-11-28T00:14:28.977Z,48.34
2022-11-28T00:15:28.948Z,46.73
2022-11-28T00:16:29.035Z,45.28
2022-11-28T00:17:28.927Z,44.63
2022-11-28T00:18:28.922Z,41.89
2022-11-28T00:19:29.007Z,44.79
2022-11-28T00:20:28.902Z,44.79
2022-11-28T00:21:28.904Z,39.80
2022-11-28T00:22:28.890Z,38.83
2022-11-28T00:23:28.877Z,39.48
2022-11-28T00:24:29.894Z,45.12
2022-11-28T00:25:28.870Z,49.47
2022-11-28T00:26:28.862Z,38.51
2022-11-28T00:27:28.849Z,42.06
2022-11-28T00:28:28.844Z,38.19
2022-11-28T00:29:28.859Z,38.19
2022-11-28T00:30:28.831Z,38.19
2022-11-28T00:31:28.907Z,38.83
2022-11-28T00:32:28.810Z,43.18
2022-11-28T00:33:28.803Z,49.15
2022-11-28T00:34:28.823Z,39.80
2022-11-28T00:35:28.865Z,39.96
2022-11-28T00:36:28.781Z,47.21
2022-11-28T00:37:28.770Z,41.25
2022-11-28T00:38:28.762Z,39.16
2022-11-28T00:39:28.757Z,42.22
2022-11-28T00:40:28.780Z,40.44
2022-11-28T00:41:28.774Z,39.80
2022-11-28T00:42:28.735Z,48.18
2022-11-28T00:43:28.731Z,42.86
2022-11-28T00:44:28.719Z,41.41
2022-11-28T00:45:28.792Z,36.90
2022-11-28T00:46:28.699Z,40.61
2022-11-28T00:47:28.695Z,36.09
2022-11-28T00:48:28.690Z,36.58
2022-11-28T00:49:28.687Z,37.22
2022-11-28T00:50:28.703Z,39.32
2022-11-28T00:51:28.760Z,38.19
2022-11-28T00:52:28.663Z,39.80
2022-11-28T00:53:28.672Z,38.19
2022-11-28T00:54:28.659Z,38.19
2022-11-28T00:55:28.675Z,41.73
2022-11-28T00:56:28.624Z,40.77
2022-11-28T00:57:28.619Z,38.67
2022-11-28T00:58:28.611Z,38.67
2022-11-28T00:59:28.602Z,38.67
2022-11-28T01:00:28.609Z,38.83
2022-11-28T01:01:29.657Z,46.57
2022-11-28T01:02:28.690Z,43.02
2022-11-28T01:03:28.573Z,41.25
2022-11-28T01:04:28.561Z,36.58
2022-11-28T01:05:28.583Z,36.90
2022-11-28T01:06:28.549Z,37.38
2022-11-28T01:07:28.740Z,37.54
2022-11-28T01:08:28.532Z,36.58
2022-11-28T01:09:28.525Z,37.71
2022-11-28T01:10:28.543Z,43.18
2022-11-28T01:11:28.510Z,52.37
2022-11-28T01:12:28.505Z,49.47
2022-11-28T01:13:28.527Z,43.18
2022-11-28T01:14:28.489Z,40.93
2022-11-28T01:15:28.476Z,43.67
2022-11-28T01:16:28.514Z,40.77
2022-11-28T01:17:28.463Z,41.41
2022-11-28T01:18:28.483Z,49.95
2022-11-28T01:19:28.448Z,47.21
2022-11-28T01:20:28.441Z,48.18
2022-11-28T01:21:28.433Z,39.64
2022-11-28T01:22:28.422Z,38.35
2022-11-28T01:23:28.515Z,42.54
2022-11-28T01:24:28.410Z,42.86
2022-11-28T01:25:28.401Z,39.96
2022-11-28T01:26:28.397Z,40.28
2022-11-28T01:27:28.389Z,43.18
2022-11-28T01:28:28.411Z,49.79
2022-11-28T01:29:28.368Z,41.09
2022-11-28T01:30:28.363Z,46.41
2022-11-28T01:31:28.444Z,49.31
2022-11-28T01:32:28.348Z,39.32
2022-11-28T01:33:28.368Z,38.83
2022-11-28T01:34:28.331Z,38.19
2022-11-28T01:35:28.328Z,37.71
2022-11-28T01:36:28.313Z,37.71
2022-11-28T01:37:28.305Z,37.87
2022-11-28T01:38:28.296Z,53.82
2022-11-28T01:39:28.382Z,48.18
2022-11-28T01:40:28.280Z,44.47
2022-11-28T01:41:28.272Z,38.19
2022-11-28T01:42:28.261Z,38.51
2022-11-28T01:43:28.257Z,38.03
2022-11-28T01:44:28.274Z,38.83
2022-11-28T01:45:28.235Z,39.32
2022-11-28T01:46:28.290Z,39.96
2022-11-28T01:47:28.224Z,39.16
2022-11-28T01:48:28.216Z,38.35
2022-11-28T01:49:28.238Z,38.83
2022-11-28T01:50:28.202Z,42.06
2022-11-28T01:51:28.193Z,41.57
2022-11-28T01:52:28.183Z,38.83
2022-11-28T01:53:28.177Z,47.05
2022-11-28T01:54:28.194Z,40.93
2022-11-28T01:55:28.236Z,42.54
2022-11-28T01:56:28.150Z,44.63
2022-11-28T01:57:28.148Z,45.76
2022-11-28T01:58:28.148Z,42.54
2022-11-28T01:59:28.154Z,42.38
2022-11-28T02:00:28.122Z,45.60
2022-11-28T02:01:28.158Z,47.86
2022-11-28T02:02:28.135Z,41.25
2022-11-28T02:03:28.093Z,38.03
2022-11-28T02:04:28.110Z,41.09
2022-11-28T02:05:28.076Z,39.80
2022-11-28T02:06:28.066Z,39.48
2022-11-28T02:07:28.095Z,38.99
2022-11-28T02:08:28.051Z,42.54
2022-11-28T02:09:28.068Z,50.27
2022-11-28T02:10:28.038Z,45.60
2022-11-28T02:11:28.101Z,45.92
2022-11-28T02:12:28.023Z,46.41
2022-11-28T02:13:28.018Z,46.08
2022-11-28T02:14:28.026Z,52.37
2022-11-28T02:15:27.991Z,41.25
2022-11-28T02:16:28.056Z,49.15
2022-11-28T02:17:27.980Z,44.15
2022-11-28T02:18:27.969Z,45.28
2022-11-28T02:19:27.985Z,50.27
2022-11-28T02:20:27.956Z,49.15
2022-11-28T02:21:27.944Z,44.15
2022-11-28T02:22:27.937Z,44.31
2022-11-28T02:23:27.932Z,48.50
2022-11-28T02:24:27.947Z,48.50
2022-11-28T02:25:27.914Z,48.66
2022-11-28T02:26:27.907Z,48.34
2022-11-28T02:27:27.971Z,41.89
2022-11-28T02:28:27.889Z,41.89
2022-11-28T02:29:27.911Z,44.63
2022-11-28T02:30:27.875Z,43.51
2022-11-28T02:31:27.900Z,42.22
2022-11-28T02:32:27.858Z,53.50
2022-11-28T02:33:27.851Z,53.17
2022-11-28T02:34:27.873Z,46.57
2022-11-28T02:35:27.839Z,49.15
2022-11-28T02:36:27.826Z,52.69
2022-11-28T02:37:27.825Z,43.67
2022-11-28T02:38:27.823Z,41.57
2022-11-28T02:39:27.830Z,42.54
2022-11-28T02:40:27.802Z,44.63
2022-11-28T02:41:27.793Z,43.83
2022-11-28T02:42:27.780Z,46.25
2022-11-28T02:43:27.855Z,43.51
2022-11-28T02:44:27.802Z,40.12
2022-11-28T02:45:27.757Z,39.16
2022-11-28T02:46:27.793Z,40.28
2022-11-28T02:47:27.743Z,39.80
2022-11-28T02:48:27.733Z,38.67
2022-11-28T02:49:27.749Z,40.44
2022-11-28T02:50:27.717Z,41.41
2022-11-28T02:51:27.710Z,40.77
2022-11-28T02:52:27.701Z,41.25
2022-11-28T02:53:27.696Z,40.77
2022-11-28T02:54:27.719Z,41.89
2022-11-28T02:55:27.680Z,44.47
2022-11-28T02:56:27.673Z,44.47
2022-11-28T02:57:27.665Z,44.47
2022-11-28T02:58:27.656Z,42.22
2022-11-28T02:59:27.757Z,45.76
2022-11-28T03:00:27.716Z,48.50
2022-11-28T03:01:27.806Z,47.05
2022-11-28T03:02:27.663Z,43.99
2022-11-28T03:03:27.622Z,41.25
2022-11-28T03:04:27.653Z,48.66
2022-11-28T03:05:27.609Z,43.51
2022-11-28T03:06:27.602Z,43.51
2022-11-28T03:07:27.634Z,49.47
2022-11-28T03:08:27.588Z,44.15
2022-11-28T03:09:27.580Z,42.54
2022-11-28T03:10:27.599Z,41.89
2022-11-28T03:11:27.564Z,41.89
2022-11-28T03:12:27.557Z,40.44
2022-11-28T03:13:27.549Z,43.99
2022-11-28T03:14:27.537Z,45.76
2022-11-28T03:15:27.627Z,44.63
2022-11-28T03:16:27.611Z,39.96
2022-11-28T03:17:27.526Z,40.93
2022-11-28T03:18:27.506Z,39.80
2022-11-28T03:19:27.503Z,39.64
2022-11-28T03:20:27.512Z,45.60
2022-11-28T03:21:27.478Z,45.92
2022-11-28T03:22:27.471Z,46.25
2022-11-28T03:23:27.478Z,48.02
2022-11-28T03:24:27.464Z,46.57
2022-11-28T03:25:27.477Z,47.21
2022-11-28T03:26:27.446Z,49.47
2022-11-28T03:27:27.433Z,48.02
2022-11-28T03:28:27.428Z,47.37
2022-11-28T03:29:27.415Z,44.79
2022-11-28T03:30:27.435Z,46.08
2022-11-28T03:31:27.565Z,43.83
2022-11-28T03:32:27.394Z,44.31
2022-11-28T03:33:27.388Z,45.44
2022-11-28T03:34:27.374Z,41.73
2022-11-28T03:35:27.391Z,43.02
2022-11-28T03:36:27.364Z,47.86
2022-11-28T03:37:27.356Z,43.18
2022-11-28T03:38:27.348Z,44.15
2022-11-28T03:39:27.342Z,43.99
2022-11-28T03:40:27.357Z,46.89
2022-11-28T03:41:27.326Z,47.05
2022-11-28T03:42:27.317Z,48.02
2022-11-28T03:43:27.312Z,45.28
2022-11-28T03:44:27.305Z,47.05
2022-11-28T03:45:27.316Z,45.92
2022-11-28T03:46:27.311Z,49.79
2022-11-28T03:47:27.355Z,44.47
2022-11-28T03:48:27.272Z,43.02
2022-11-28T03:49:27.262Z,43.83
2022-11-28T03:50:27.276Z,44.63
2022-11-28T03:51:27.247Z,51.88
2022-11-28T03:52:27.235Z,52.37
2022-11-28T03:53:27.228Z,49.15
2022-11-28T03:54:27.219Z,53.33
2022-11-28T03:55:27.317Z,52.37
2022-11-28T03:56:27.205Z,48.18
2022-11-28T03:57:27.196Z,47.53
2022-11-28T03:58:27.182Z,48.98
2022-11-28T03:59:27.181Z,51.56
2022-11-28T04:00:27.196Z,56.24
2022-11-28T04:01:27.205Z,50.11
2022-11-28T04:02:27.176Z,53.82
2022-11-28T04:03:27.371Z,49.63
2022-11-28T04:04:27.136Z,49.63
2022-11-28T04:05:27.135Z,54.46
2022-11-28T04:06:27.148Z,54.46
2022-11-28T04:07:27.172Z,55.27
2022-11-28T04:08:27.113Z,54.46
2022-11-28T04:09:27.097Z,56.56
2022-11-28T04:10:27.091Z,52.85
2022-11-28T04:11:27.113Z,53.50
2022-11-28T04:12:27.080Z,53.50
2022-11-28T04:13:27.075Z,55.91
2022-11-28T04:14:27.065Z,54.95
2022-11-28T04:15:27.061Z,56.56
2022-11-28T04:16:27.118Z,54.30
2022-11-28T04:17:27.037Z,53.66
2022-11-28T04:18:27.029Z,55.43
2022-11-28T04:19:27.098Z,53.98
2022-11-28T04:20:27.019Z,54.62
2022-11-28T04:21:27.034Z,54.46
2022-11-28T04:22:26.999Z,59.46
2022-11-28T04:23:26.995Z,57.85
2022-11-28T04:24:26.983Z,56.40
2022-11-28T04:25:26.976Z,57.04
2022-11-28T04:26:26.994Z,54.30
2022-11-28T04:27:26.965Z,53.33
2022-11-28T04:28:26.956Z,57.52
2022-11-28T04:29:26.945Z,54.79
2022-11-28T04:30:26.942Z,54.30
2022-11-28T04:31:27.005Z,57.20
2022-11-28T04:32:26.918Z,61.23
2022-11-28T04:33:26.912Z,54.79
2022-11-28T04:34:26.915Z,56.56
2022-11-28T04:35:26.976Z,49.95
2022-11-28T04:36:26.921Z,53.82
2022-11-28T04:37:26.886Z,58.65
2022-11-28T04:38:26.872Z,58.01
2022-11-28T04:39:26.866Z,56.72
2022-11-28T04:40:26.862Z,58.81
2022-11-28T04:41:26.878Z,56.07
2022-11-28T04:42:26.846Z,47.37
2022-11-28T04:43:26.839Z,51.40
2022-11-28T04:44:26.826Z,52.69
2022-11-28T04:45:26.911Z,56.72
2022-11-28T04:46:26.920Z,55.43
2022-11-28T04:47:26.806Z,52.21
2022-11-28T04:48:29.943Z,51.40
2022-11-28T04:49:28.780Z,49.47
2022-11-28T04:50:26.774Z,48.34
2022-11-28T04:51:26.875Z,61.71
2022-11-28T04:52:26.762Z,49.63
2022-11-28T04:53:26.755Z,45.92
2022-11-28T04:54:26.747Z,48.82
2022-11-28T04:55:26.739Z,53.33
2022-11-28T04:56:26.754Z,52.85
2022-11-28T04:57:26.720Z,51.08
2022-11-28T04:58:26.718Z,56.88
2022-11-28T04:59:26.710Z,49.63
2022-11-28T05:00:26.696Z,51.24
2022-11-28T05:01:26.810Z,53.50
2022-11-28T05:02:26.737Z,53.01
2022-11-28T05:03:26.677Z,53.33
2022-11-28T05:04:26.668Z,52.05
2022-11-28T05:05:26.659Z,52.37
2022-11-28T05:06:26.679Z,55.59
2022-11-28T05:07:26.775Z,48.02
2022-11-28T05:08:26.635Z,48.50
2022-11-28T05:09:26.632Z,48.82
2022-11-28T05:10:26.622Z,60.10
2022-11-28T05:11:26.640Z,53.50
2022-11-28T05:12:26.605Z,54.79
2022-11-28T05:13:26.604Z,52.69
2022-11-28T05:14:26.590Z,47.37
2022-11-28T05:15:26.581Z,52.53
2022-11-28T05:16:26.625Z,51.88
2022-11-28T05:17:26.563Z,55.27
2022-11-28T05:18:26.547Z,53.33
2022-11-28T05:19:27.549Z,53.50
2022-11-28T05:20:26.542Z,53.01
2022-11-28T05:21:26.565Z,53.01
2022-11-28T05:22:26.531Z,55.59
2022-11-28T05:23:26.594Z,58.65
2022-11-28T05:24:31.940Z,58.01
2022-11-28T05:25:28.506Z,57.52
2022-11-28T05:26:26.518Z,53.01
2022-11-28T05:27:26.489Z,57.36
2022-11-28T05:28:26.477Z,60.42
2022-11-28T05:29:26.469Z,55.75
2022-11-28T05:30:26.466Z,56.24
2022-11-28T05:31:26.538Z,56.07
2022-11-28T05:32:26.446Z,58.97
2022-11-28T05:33:26.440Z,58.49
2022-11-28T05:34:26.437Z,58.81
2022-11-28T05:35:26.423Z,56.07
2022-11-28T05:36:26.440Z,59.62
2022-11-28T05:37:26.415Z,55.75
2022-11-28T05:38:26.397Z,50.76
2022-11-28T05:39:26.485Z,57.69
2022-11-28T05:40:26.382Z,61.55
2022-11-28T05:41:26.403Z,55.43
2022-11-28T05:42:26.367Z,55.75
2022-11-28T05:43:26.359Z,58.65
2022-11-28T05:44:27.129Z,57.20
2022-11-28T05:45:27.375Z,58.17
2022-11-28T05:46:26.360Z,55.59
2022-11-28T05:47:26.326Z,57.52
2022-11-28T05:48:26.315Z,53.98
2022-11-28T05:49:26.315Z,54.46
2022-11-28T05:50:26.303Z,60.75
2022-11-28T05:51:26.315Z,51.24
2022-11-28T05:52:26.286Z,52.37
2022-11-28T05:53:26.280Z,51.72
2022-11-28T05:54:26.271Z,61.39
2022-11-28T05:55:26.337Z,58.33
2022-11-28T05:56:26.254Z,55.27
2022-11-28T05:57:26.270Z,56.72
2022-11-28T05:58:26.234Z,51.40
2022-11-28T05:59:26.231Z,54.30
2022-11-28T06:00:26.217Z,48.66
2022-11-28T06:01:26.207Z,54.30
2022-11-28T06:02:26.270Z,58.17
2022-11-28T06:03:26.194Z,58.97
2022-11-28T06:04:26.213Z,58.65
2022-11-28T06:05:41.673Z,56.88
2022-11-28T06:06:28.174Z,49.47
2022-11-28T06:07:26.223Z,51.72
2022-11-28T06:08:26.159Z,60.75
2022-11-28T06:09:26.387Z,59.78
2022-11-28T06:10:26.139Z,56.40
2022-11-28T06:11:26.212Z,59.30
2022-11-28T06:12:26.166Z,59.94
2022-11-28T06:13:26.117Z,57.04
2022-11-28T06:14:26.105Z,57.85
2022-11-28T06:15:26.097Z,57.20
2022-11-28T06:16:26.146Z,57.69
2022-11-28T06:17:26.107Z,57.52
2022-11-28T06:18:26.074Z,57.36
2022-11-28T06:19:26.067Z,57.04
2022-11-28T06:20:26.059Z,58.65
2022-11-28T06:21:26.048Z,60.10
2022-11-28T06:22:26.070Z,55.43
2022-11-28T06:23:26.029Z,60.42
2022-11-28T06:24:26.024Z,59.94
2022-11-28T06:25:26.019Z,55.59
2022-11-28T06:26:26.005Z,57.20
2022-11-28T06:27:26.086Z,60.91
2022-11-28T06:28:26.993Z,59.14
2022-11-28T06:29:25.983Z,61.23
2022-11-28T06:30:25.982Z,59.62
2022-11-28T06:31:26.000Z,60.75
2022-11-28T06:32:25.984Z,60.75
2022-11-28T06:33:25.953Z,59.94
2022-11-28T06:34:25.943Z,60.42
2022-11-28T06:35:25.939Z,61.07
2022-11-28T06:36:25.929Z,52.37
2022-11-28T06:37:25.948Z,59.14
2022-11-28T06:38:25.918Z,56.24
2022-11-28T06:39:25.911Z,56.56
2022-11-28T06:40:25.899Z,60.26
2022-11-28T06:41:25.890Z,59.62
2022-11-28T06:42:25.908Z,60.59
2022-11-28T06:43:25.956Z,60.75
2022-11-28T06:44:25.865Z,57.04
2022-11-28T06:45:25.903Z,60.42
2022-11-28T06:46:25.906Z,60.59
2022-11-28T06:47:25.868Z,59.62
2022-11-28T06:48:25.838Z,60.10
2022-11-28T06:49:25.830Z,60.91
2022-11-28T06:50:25.819Z,61.55
2022-11-28T06:51:25.809Z,52.37
2022-11-28T06:52:25.827Z,58.81
2022-11-28T06:53:31.228Z,56.40
2022-11-28T06:54:27.791Z,60.26
2022-11-28T06:55:25.778Z,59.46
2022-11-28T06:56:25.775Z,60.75
2022-11-28T06:57:25.798Z,60.91
2022-11-28T06:58:25.764Z,60.59
2022-11-28T06:59:25.823Z,56.40
2022-11-28T07:00:25.741Z,57.36
2022-11-28T07:01:25.783Z,60.10
2022-11-28T07:02:25.790Z,61.39
2022-11-28T07:03:25.722Z,58.97
2022-11-28T07:04:25.710Z,61.23
2022-11-28T07:05:25.709Z,55.27
2022-11-28T07:06:25.692Z,57.04
2022-11-28T07:07:25.735Z,60.10
2022-11-28T07:08:25.780Z,60.75
2022-11-28T07:09:26.672Z,58.97
2022-11-28T07:10:25.675Z,59.78
2022-11-28T07:11:25.655Z,61.39
2022-11-28T07:12:25.650Z,61.55
2022-11-28T07:13:25.664Z,61.23
2022-11-28T07:14:25.632Z,57.69
2022-11-28T07:15:25.743Z,54.14
2022-11-28T07:16:25.688Z,45.60
2022-11-28T07:17:25.617Z,47.70
2022-11-28T07:18:25.628Z,49.63
2022-11-28T07:19:25.595Z,59.78
2022-11-28T07:20:25.589Z,56.56
2022-11-28T07:21:25.583Z,60.42
2022-11-28T07:22:25.571Z,57.04
2022-11-28T07:23:25.587Z,56.56
2022-11-28T07:24:25.554Z,54.79
2022-11-28T07:25:25.549Z,60.91
2022-11-28T07:26:25.543Z,51.88
2022-11-28T07:27:25.536Z,56.88
2022-11-28T07:28:25.552Z,55.91
2022-11-28T07:29:25.517Z,60.91
2022-11-28T07:30:25.510Z,59.78
2022-11-28T07:31:25.535Z,58.81
2022-11-28T07:32:25.496Z,56.40
2022-11-28T07:33:25.511Z,60.75
2022-11-28T07:34:25.476Z,57.20
2022-11-28T07:35:25.471Z,54.62
2022-11-28T07:36:25.457Z,58.17
2022-11-28T07:37:25.454Z,58.81
2022-11-28T07:38:25.473Z,60.26
2022-11-28T07:39:25.432Z,56.56
2022-11-28T07:40:25.426Z,58.97
2022-11-28T07:41:26.970Z,58.49
2022-11-28T07:42:26.410Z,63.97
2022-11-28T07:43:25.430Z,54.30
2022-11-28T07:44:25.398Z,59.94
2022-11-28T07:45:37.030Z,55.59
2022-11-28T07:46:27.445Z,57.20
2022-11-28T07:47:25.370Z,54.79
2022-11-28T07:48:25.396Z,57.69
2022-11-28T07:49:25.358Z,50.11
2022-11-28T07:50:25.351Z,56.24
2022-11-28T07:51:25.365Z,52.85
2022-11-28T07:52:25.336Z,51.72
2022-11-28T07:53:25.333Z,55.27
2022-11-28T07:54:25.340Z,57.52
2022-11-28T07:55:25.310Z,51.40
2022-11-28T07:56:25.305Z,56.40
2022-11-28T07:57:25.299Z,53.17
2022-11-28T07:58:25.288Z,53.66
2022-11-28T07:59:25.307Z,57.04
2022-11-28T08:00:25.326Z,60.42
2022-11-28T08:01:25.276Z,54.62
2022-11-28T08:02:25.347Z,56.72
2022-11-28T08:03:25.253Z,52.37
2022-11-28T08:04:25.297Z,51.08
2022-11-28T08:05:25.243Z,56.56
2022-11-28T08:06:25.240Z,55.27
2022-11-28T08:07:25.296Z,51.40
2022-11-28T08:08:25.214Z,54.79
2022-11-28T08:09:25.233Z,51.40
2022-11-28T08:10:25.196Z,53.50
2022-11-28T08:11:25.215Z,50.76
2022-11-28T08:12:25.179Z,54.95
2022-11-28T08:13:25.171Z,58.17
2022-11-28T08:14:25.191Z,55.75
2022-11-28T08:15:25.159Z,49.47
2022-11-28T08:16:25.178Z,57.04
2022-11-28T08:17:25.141Z,57.20
2022-11-28T08:18:25.129Z,52.53
2022-11-28T08:19:25.468Z,59.30
2022-11-28T08:20:25.154Z,58.01
2022-11-28T08:21:25.107Z,53.82
2022-11-28T08:22:25.100Z,54.95
2022-11-28T08:23:25.092Z,55.43
2022-11-28T08:24:25.108Z,50.27
2022-11-28T08:25:25.076Z,51.88
2022-11-28T08:26:28.930Z,53.50
2022-11-28T08:27:27.069Z,54.46
2022-11-28T08:28:25.050Z,55.75
2022-11-28T08:29:25.668Z,51.08
2022-11-28T08:30:25.043Z,59.94
2022-11-28T08:31:25.077Z,54.62
2022-11-28T08:32:25.024Z,54.95
2022-11-28T08:33:25.037Z,56.88
2022-11-28T08:34:25.035Z,48.98
2022-11-28T08:35:24.993Z,50.43
2022-11-28T08:36:24.990Z,56.07
2022-11-28T08:37:24.981Z,53.33
2022-11-28T08:38:24.975Z,49.79
2022-11-28T08:39:25.575Z,55.11
2022-11-28T08:40:24.967Z,56.88
2022-11-28T08:41:24.949Z,55.59
2022-11-28T08:42:24.941Z,56.24
2022-11-28T08:43:24.938Z,52.85
2022-11-28T08:44:24.950Z,57.04
2022-11-28T08:45:24.919Z,51.56
2022-11-28T08:46:24.999Z,49.95
2022-11-28T08:47:24.903Z,54.46
2022-11-28T08:48:24.896Z,56.88
2022-11-28T08:49:24.916Z,53.50
2022-11-28T08:50:24.882Z,53.82
2022-11-28T08:51:24.910Z,54.30
2022-11-28T08:52:24.867Z,53.01
2022-11-28T08:53:24.868Z,61.87
2022-11-28T08:54:24.882Z,54.95
2022-11-28T08:55:31.932Z,53.01
2022-11-28T08:56:26.848Z,55.59
2022-11-28T08:57:24.829Z,50.76
2022-11-28T08:58:24.828Z,46.08
2022-11-28T08:59:24.838Z,54.95
2022-11-28T09:00:24.809Z,50.43
2022-11-28T09:01:24.911Z,59.78
2022-11-28T09:02:26.214Z,53.98
2022-11-28T09:03:25.841Z,56.07
2022-11-28T09:04:24.847Z,55.27
2022-11-28T09:05:24.768Z,54.95
2022-11-28T09:06:24.761Z,51.88
2022-11-28T09:07:24.803Z,49.15
2022-11-28T09:08:24.745Z,59.30
2022-11-28T09:09:26.330Z,49.79
2022-11-28T09:10:24.730Z,51.24
2022-11-28T09:11:24.831Z,53.98
2022-11-28T09:12:24.712Z,53.66
2022-11-28T09:13:24.709Z,44.31
2022-11-28T09:14:24.726Z,47.70
2022-11-28T09:15:24.692Z,52.85
2022-11-28T09:16:24.702Z,51.08
2022-11-28T09:17:24.667Z,56.56
2022-11-28T09:18:25.668Z,54.14
2022-11-28T09:19:24.662Z,54.14
2022-11-28T09:20:24.680Z,49.79
2022-11-28T09:21:24.645Z,51.24
2022-11-28T09:22:24.642Z,55.43
2022-11-28T09:23:24.628Z,51.72
2022-11-28T09:24:24.630Z,51.08
2022-11-28T09:25:24.655Z,48.50
2022-11-28T09:26:24.607Z,51.56
2022-11-28T09:27:25.603Z,52.21
2022-11-28T09:28:24.601Z,49.47
2022-11-28T09:29:24.586Z,58.33
2022-11-28T09:30:24.604Z,56.56
2022-11-28T09:31:24.604Z,53.50
2022-11-28T09:32:25.564Z,54.46
2022-11-28T09:33:24.555Z,52.05
2022-11-28T09:34:24.544Z,54.30
2022-11-28T09:35:24.568Z,54.46
2022-11-28T09:36:24.538Z,52.53
2022-11-28T09:37:24.528Z,59.62
2022-11-28T09:38:24.505Z,54.14
2022-11-28T09:39:25.510Z,55.11
2022-11-28T09:40:24.527Z,57.69
2022-11-28T09:41:24.494Z,47.37
2022-11-28T09:42:24.488Z,51.56
2022-11-28T09:43:24.484Z,57.20
2022-11-28T09:44:24.470Z,53.01
2022-11-28T09:45:24.489Z,52.85
2022-11-28T09:46:24.533Z,50.76
2022-11-28T09:47:24.446Z,55.11
2022-11-28T09:48:24.445Z,55.11
2022-11-28T09:49:24.431Z,56.40
2022-11-28T09:50:24.455Z,60.91
2022-11-28T09:51:24.414Z,56.07
2022-11-28T09:52:24.477Z,55.11
2022-11-28T09:53:24.400Z,55.75
2022-11-28T09:54:24.395Z,61.07
2022-11-28T09:55:24.407Z,53.33
2022-11-28T09:56:24.372Z,59.46
2022-11-28T09:57:24.367Z,60.59
2022-11-28T09:58:24.360Z,52.69
2022-11-28T09:59:24.354Z,54.46
2022-11-28T10:00:24.363Z,59.30
2022-11-28T10:01:25.359Z,49.63
2022-11-28T10:02:24.333Z,50.43
2022-11-28T10:03:24.402Z,46.08
2022-11-28T10:04:24.358Z,49.31
2022-11-28T10:05:24.352Z,55.11
2022-11-28T10:06:24.295Z,53.98
2022-11-28T10:07:24.305Z,47.53
2022-11-28T10:08:24.279Z,50.11
2022-11-28T10:09:24.279Z,53.98
2022-11-28T10:10:24.305Z,54.46
2022-11-28T10:11:24.260Z,52.21
2022-11-28T10:12:24.253Z,54.46
2022-11-28T10:13:24.379Z,52.37
2022-11-28T10:14:24.230Z,51.40
2022-11-28T10:15:24.252Z,52.37
2022-11-28T10:16:24.232Z,51.56
2022-11-28T10:17:24.219Z,53.01
2022-11-28T10:18:24.201Z,48.18
2022-11-28T10:19:52.734Z,59.94
2022-11-28T10:20:26.278Z,51.88
2022-11-28T10:21:24.180Z,48.66
2022-11-28T10:22:24.173Z,49.63
2022-11-28T10:23:24.160Z,57.85
2022-11-28T10:24:24.152Z,58.97
2022-11-28T10:25:24.171Z,55.27
2022-11-28T10:26:24.167Z,52.53
2022-11-28T10:27:27.089Z,52.85
2022-11-28T10:28:25.123Z,59.30
2022-11-28T10:29:24.118Z,57.69
2022-11-28T10:30:24.119Z,50.92
2022-11-28T10:31:24.169Z,56.24
2022-11-28T10:32:24.097Z,55.11
2022-11-28T10:33:24.089Z,53.98
2022-11-28T10:34:24.080Z,52.05
2022-11-28T10:35:28.317Z,52.21
2022-11-28T10:36:25.085Z,48.34
2022-11-28T10:37:24.059Z,53.33
2022-11-28T10:38:24.048Z,54.46
2022-11-28T10:39:24.041Z,48.66
2022-11-28T10:40:24.037Z,60.59
2022-11-28T10:41:24.055Z,48.66
2022-11-28T10:42:24.015Z,48.02
2022-11-28T10:43:24.011Z,52.37
2022-11-28T10:44:24.002Z,51.40
2022-11-28T10:45:23.994Z,43.18
2022-11-28T10:46:24.088Z,50.11
2022-11-28T10:47:23.975Z,50.11
2022-11-28T10:48:41.047Z,49.31
2022-11-28T10:49:25.956Z,56.07
2022-11-28T10:50:26.891Z,59.46
2022-11-28T10:51:24.970Z,52.05
2022-11-28T10:52:23.941Z,54.46
2022-11-28T10:53:23.929Z,49.15
2022-11-28T10:54:23.925Z,50.76
2022-11-28T10:55:23.918Z,55.75
2022-11-28T10:56:23.939Z,54.62
2022-11-28T10:57:23.909Z,51.24
2022-11-28T10:58:23.893Z,48.50
2022-11-28T10:59:23.893Z,53.01
2022-11-28T11:00:23.903Z,52.53
2022-11-28T11:01:23.938Z,45.92
2022-11-28T11:02:23.867Z,50.11
2022-11-28T11:03:23.860Z,56.40
2022-11-28T11:04:23.907Z,47.70
2022-11-28T11:05:23.842Z,52.37
2022-11-28T11:06:24.280Z,53.82
2022-11-28T11:07:29.167Z,57.04
2022-11-28T11:08:25.936Z,54.46
2022-11-28T11:09:23.807Z,52.69
2022-11-28T11:10:23.799Z,57.52
2022-11-28T11:11:23.817Z,54.14
2022-11-28T11:12:23.785Z,53.82
2022-11-28T11:13:23.774Z,50.27
2022-11-28T11:14:23.770Z,52.37
2022-11-28T11:15:23.759Z,55.43
2022-11-28T11:16:23.832Z,59.78
2022-11-28T11:17:23.751Z,50.43
2022-11-28T11:18:23.739Z,54.62
2022-11-28T11:19:23.729Z,56.72
2022-11-28T11:20:23.743Z,55.11
2022-11-28T11:21:23.752Z,54.62
2022-11-28T11:22:23.720Z,48.50
2022-11-28T11:23:23.708Z,50.43
2022-11-28T11:24:23.697Z,54.46
2022-11-28T11:25:23.685Z,56.24
2022-11-28T11:26:23.708Z,53.33
2022-11-28T11:27:23.671Z,49.79
2022-11-28T11:28:23.662Z,52.53
2022-11-28T11:29:23.657Z,48.82
2022-11-28T11:30:23.655Z,52.53
2022-11-28T11:31:23.750Z,57.52
2022-11-28T11:32:23.634Z,48.34
2022-11-28T11:33:23.639Z,52.05
2022-11-28T11:34:23.620Z,55.59
2022-11-28T11:35:23.615Z,58.97
2022-11-28T11:36:23.628Z,53.66
2022-11-28T11:37:23.599Z,52.21
2022-11-28T11:38:23.592Z,50.76
2022-11-28T11:39:23.579Z,54.30
2022-11-28T11:40:23.580Z,53.82
2022-11-28T11:41:23.608Z,53.01
2022-11-28T11:42:23.558Z,53.17
2022-11-28T11:43:23.543Z,57.85
2022-11-28T11:44:23.534Z,54.79
2022-11-28T11:45:23.529Z,54.46
2022-11-28T11:46:23.613Z,53.01
2022-11-28T11:47:23.513Z,49.31
2022-11-28T11:48:23.507Z,53.50
2022-11-28T11:49:23.498Z,57.69
2022-11-28T11:50:23.488Z,48.66
2022-11-28T11:51:23.479Z,51.08
2022-11-28T11:52:23.496Z,59.78
2022-11-28T11:53:23.479Z,58.65
2022-11-28T11:54:23.457Z,55.43
2022-11-28T11:55:23.452Z,49.95
2022-11-28T11:56:23.452Z,49.95
2022-11-28T11:57:33.199Z,53.50
2022-11-28T11:58:25.421Z,50.92
2022-11-28T11:59:23.418Z,53.17
2022-11-28T12:00:23.420Z,52.85
2022-11-28T12:01:23.407Z,52.69
2022-11-28T12:02:23.487Z,53.66
2022-11-28T12:03:23.511Z,48.50
2022-11-28T12:04:44.411Z,47.05
2022-11-28T12:05:25.374Z,47.37
2022-11-28T12:06:23.368Z,44.96
2022-11-28T12:07:23.549Z,52.85
2022-11-28T12:08:23.348Z,52.69
2022-11-28T12:09:23.344Z,55.43
2022-11-28T12:10:23.334Z,53.66
2022-11-28T12:11:23.325Z,52.69
2022-11-28T12:12:23.348Z,52.69
2022-11-28T12:13:23.312Z,53.50
2022-11-28T12:14:23.303Z,58.01
2022-11-28T12:15:23.288Z,58.49
2022-11-28T12:16:23.334Z,53.17
2022-11-28T12:17:47.865Z,48.18
2022-11-28T12:18:25.272Z,52.05
2022-11-28T12:19:23.258Z,59.94
2022-11-28T12:20:23.252Z,49.31
2022-11-28T12:21:23.247Z,50.60
2022-11-28T12:22:23.274Z,59.78
2022-11-28T12:23:23.229Z,57.04
2022-11-28T12:24:23.225Z,53.33
2022-11-28T12:25:23.213Z,56.40
2022-11-28T12:26:23.211Z,52.37
2022-11-28T12:27:23.231Z,57.20
2022-11-28T12:28:23.189Z,54.46
2022-11-28T12:29:23.208Z,55.91
2022-11-28T12:30:23.172Z,49.63
2022-11-28T12:31:23.215Z,45.12
2022-11-28T12:32:23.179Z,50.27
2022-11-28T12:33:23.147Z,56.07
2022-11-28T12:34:23.149Z,55.11
2022-11-28T12:35:23.134Z,56.72
2022-11-28T12:36:23.123Z,56.56
2022-11-28T12:37:23.197Z,54.62
2022-11-28T12:38:24.119Z,46.73
2022-11-28T12:39:23.102Z,44.79
2022-11-28T12:40:23.092Z,53.50
2022-11-28T12:41:27.648Z,53.50
2022-11-28T12:42:25.101Z,48.82
2022-11-28T12:43:23.066Z,55.59
2022-11-28T12:44:23.061Z,54.62
2022-11-28T12:45:23.054Z,51.56
2022-11-28T12:46:23.102Z,60.91
2022-11-28T12:47:23.061Z,53.33
2022-11-28T12:48:23.030Z,52.37
2022-11-28T12:49:23.019Z,53.17
2022-11-28T12:50:23.012Z,53.50
2022-11-28T12:51:23.003Z,59.14
2022-11-28T12:52:23.020Z,51.40